sensor_id;sensor_type;location;lat;lon;timestamp;pressure;altitude;pressure_sealevel;temperature;humidity
85895;BME280;76441;49.954;8.842;2024-02-26T00:01:24;98474.56;;;5.89;70.14
85895;BME280;76441;49.954;8.842;2024-02-26T00:03:50;98473.69;;;5.89;69.64
85895;BME280;76441;49.954;8.842;2024-02-26T00:06:15;98479.19;;;5.99;68.85
85895;BME280;76441;49.954;8.842;2024-02-26T00:08:40;98477.00;;;5.96;69.51
85895;BME280;76441;49.954;8.842;2024-02-26T00:11:06;98463.09;;;5.96;69.43
85895;BME280;76441;49.954;8.842;2024-02-26T00:13:31;98455.84;;;5.95;69.60
85895;BME280;76441;49.954;8.842;2024-02-26T00:15:56;98454.88;;;6.05;69.14
85895;BME280;76441;49.954;8.842;2024-02-26T00:18:22;98456.84;;;6.04;68.93
85895;BME280;76441;49.954;8.842;2024-02-26T00:20:47;98455.72;;;6.05;68.56
85895;BME280;76441;49.954;8.842;2024-02-26T00:23:15;98465.34;;;6.13;68.50
85895;BME280;76441;49.954;8.842;2024-02-26T00:25:40;98453.16;;;6.09;68.98
85895;BME280;76441;49.954;8.842;2024-02-26T00:28:07;98453.66;;;6.11;69.41
85895;BME280;76441;49.954;8.842;2024-02-26T00:30:33;98442.06;;;6.22;67.89
85895;BME280;76441;49.954;8.842;2024-02-26T00:32:58;98446.81;;;6.22;68.15
85895;BME280;76441;49.954;8.842;2024-02-26T00:35:23;98445.47;;;6.19;68.80
85895;BME280;76441;49.954;8.842;2024-02-26T00:37:48;98439.59;;;6.21;69.13
85895;BME280;76441;49.954;8.842;2024-02-26T00:40:14;98427.00;;;6.23;67.90
85895;BME280;76441;49.954;8.842;2024-02-26T00:42:39;98420.34;;;6.24;68.90
85895;BME280;76441;49.954;8.842;2024-02-26T00:45:10;98421.16;;;6.25;68.22
85895;BME280;76441;49.954;8.842;2024-02-26T00:47:35;98393.03;;;6.21;69.30
85895;BME280;76441;49.954;8.842;2024-02-26T00:50:01;98406.44;;;6.19;69.29
85895;BME280;76441;49.954;8.842;2024-02-26T00:52:26;98411.97;;;6.24;69.15
85895;BME280;76441;49.954;8.842;2024-02-26T00:54:52;98420.91;;;6.21;69.72
85895;BME280;76441;49.954;8.842;2024-02-26T00:57:17;98414.28;;;6.17;68.96
85895;BME280;76441;49.954;8.842;2024-02-26T00:59:42;98412.56;;;6.21;68.94
85895;BME280;76441;49.954;8.842;2024-02-26T01:02:08;98410.84;;;6.25;69.13
85895;BME280;76441;49.954;8.842;2024-02-26T01:04:33;98408.94;;;6.21;69.14
85895;BME280;76441;49.954;8.842;2024-02-26T01:06:59;98416.53;;;6.15;69.47
85895;BME280;76441;49.954;8.842;2024-02-26T01:09:24;98422.13;;;6.15;68.97
85895;BME280;76441;49.954;8.842;2024-02-26T01:11:49;98436.66;;;6.12;69.37
85895;BME280;76441;49.954;8.842;2024-02-26T01:14:15;98451.13;;;6.14;69.48
85895;BME280;76441;49.954;8.842;2024-02-26T01:16:41;98446.97;;;6.12;69.07
85895;BME280;76441;49.954;8.842;2024-02-26T01:19:06;98435.97;;;6.02;70.70
85895;BME280;76441;49.954;8.842;2024-02-26T01:21:31;98442.97;;;5.99;70.93
85895;BME280;76441;49.954;8.842;2024-02-26T01:23:57;98450.88;;;5.92;71.68
85895;BME280;76441;49.954;8.842;2024-02-26T01:26:22;98447.81;;;5.88;71.77
85895;BME280;76441;49.954;8.842;2024-02-26T01:28:48;98441.19;;;5.84;72.08
85895;BME280;76441;49.954;8.842;2024-02-26T01:31:13;98419.75;;;5.85;72.63
85895;BME280;76441;49.954;8.842;2024-02-26T01:33:39;98413.88;;;5.86;71.61
85895;BME280;76441;49.954;8.842;2024-02-26T01:36:04;98409.63;;;5.94;71.34
85895;BME280;76441;49.954;8.842;2024-02-26T01:38:29;98432.22;;;5.92;71.27
85895;BME280;76441;49.954;8.842;2024-02-26T01:40:55;98422.75;;;5.88;71.77
85895;BME280;76441;49.954;8.842;2024-02-26T01:43:20;98413.84;;;5.91;71.35
85895;BME280;76441;49.954;8.842;2024-02-26T01:45:46;98428.22;;;5.99;70.64
85895;BME280;76441;49.954;8.842;2024-02-26T01:48:11;98419.66;;;5.95;71.62
85895;BME280;76441;49.954;8.842;2024-02-26T01:50:37;98405.50;;;5.91;71.24
85895;BME280;76441;49.954;8.842;2024-02-26T01:53:03;98425.84;;;5.87;72.15
85895;BME280;76441;49.954;8.842;2024-02-26T01:55:29;98418.00;;;5.89;72.03
85895;BME280;76441;49.954;8.842;2024-02-26T01:57:55;98436.97;;;5.87;71.74
85895;BME280;76441;49.954;8.842;2024-02-26T02:00:21;98451.03;;;5.77;73.48
85895;BME280;76441;49.954;8.842;2024-02-26T02:02:47;98437.66;;;5.79;72.25
85895;BME280;76441;49.954;8.842;2024-02-26T02:05:15;98430.88;;;5.85;72.14
85895;BME280;76441;49.954;8.842;2024-02-26T02:07:43;98452.31;;;5.84;72.48
85895;BME280;76441;49.954;8.842;2024-02-26T02:10:09;98435.84;;;5.88;71.24
85895;BME280;76441;49.954;8.842;2024-02-26T02:12:35;98430.88;;;5.85;72.29
85895;BME280;76441;49.954;8.842;2024-02-26T02:15:01;98427.25;;;5.84;72.43
85895;BME280;76441;49.954;8.842;2024-02-26T02:17:27;98397.22;;;5.81;72.80
85895;BME280;76441;49.954;8.842;2024-02-26T02:19:53;98410.25;;;5.86;72.56
85895;BME280;76441;49.954;8.842;2024-02-26T02:22:18;98410.03;;;5.82;72.47
85895;BME280;76441;49.954;8.842;2024-02-26T02:24:45;98407.53;;;5.81;71.83
85895;BME280;76441;49.954;8.842;2024-02-26T02:27:10;98469.94;;;5.80;73.12
85895;BME280;76441;49.954;8.842;2024-02-26T02:29:36;98455.19;;;5.79;73.28
85895;BME280;76441;49.954;8.842;2024-02-26T02:32:01;98459.09;;;5.78;72.45
85895;BME280;76441;49.954;8.842;2024-02-26T02:34:28;98454.94;;;5.76;73.08
85895;BME280;76441;49.954;8.842;2024-02-26T02:36:54;98454.66;;;5.77;73.00
85895;BME280;76441;49.954;8.842;2024-02-26T02:39:20;98453.28;;;5.75;72.77
85895;BME280;76441;49.954;8.842;2024-02-26T02:41:46;98453.91;;;5.72;73.53
85895;BME280;76441;49.954;8.842;2024-02-26T02:44:12;98462.19;;;5.77;72.95
85895;BME280;76441;49.954;8.842;2024-02-26T02:46:38;98458.56;;;5.76;72.75
85895;BME280;76441;49.954;8.842;2024-02-26T02:49:03;98456.59;;;5.77;73.79
85895;BME280;76441;49.954;8.842;2024-02-26T02:51:29;98461.50;;;5.85;73.02
85895;BME280;76441;49.954;8.842;2024-02-26T02:53:54;98454.56;;;5.82;73.23
85895;BME280;76441;49.954;8.842;2024-02-26T02:56:19;98459.91;;;5.79;73.08
85895;BME280;76441;49.954;8.842;2024-02-26T02:58:45;98458.84;;;5.75;73.97
85895;BME280;76441;49.954;8.842;2024-02-26T03:01:10;98464.44;;;5.75;73.63
85895;BME280;76441;49.954;8.842;2024-02-26T03:03:35;98452.16;;;5.76;73.46
85895;BME280;76441;49.954;8.842;2024-02-26T03:06:02;98462.25;;;5.72;73.21
85895;BME280;76441;49.954;8.842;2024-02-26T03:08:28;98474.91;;;5.83;73.22
85895;BME280;76441;49.954;8.842;2024-02-26T03:10:53;98466.38;;;5.74;73.68
85895;BME280;76441;49.954;8.842;2024-02-26T03:13:19;98469.63;;;5.81;73.08
85895;BME280;76441;49.954;8.842;2024-02-26T03:15:44;98471.13;;;5.74;73.78
85895;BME280;76441;49.954;8.842;2024-02-26T03:18:09;98463.53;;;5.79;73.18
85895;BME280;76441;49.954;8.842;2024-02-26T03:20:35;98463.59;;;5.74;73.65
85895;BME280;76441;49.954;8.842;2024-02-26T03:23:00;98466.53;;;5.64;73.86
85895;BME280;76441;49.954;8.842;2024-02-26T03:25:25;98465.56;;;5.74;74.26
85895;BME280;76441;49.954;8.842;2024-02-26T03:27:51;98466.28;;;5.60;74.99
85895;BME280;76441;49.954;8.842;2024-02-26T03:30:16;98465.22;;;5.56;75.16
85895;BME280;76441;49.954;8.842;2024-02-26T03:32:41;98466.00;;;5.62;74.43
85895;BME280;76441;49.954;8.842;2024-02-26T03:35:07;98471.91;;;5.55;74.90
85895;BME280;76441;49.954;8.842;2024-02-26T03:37:33;98465.56;;;5.50;75.85
85895;BME280;76441;49.954;8.842;2024-02-26T03:39:58;98464.19;;;5.47;75.07
85895;BME280;76441;49.954;8.842;2024-02-26T03:42:24;98464.19;;;5.47;76.34
85895;BME280;76441;49.954;8.842;2024-02-26T03:44:49;98474.56;;;5.42;75.94
85895;BME280;76441;49.954;8.842;2024-02-26T03:47:16;98468.09;;;5.46;75.54
85895;BME280;76441;49.954;8.842;2024-02-26T03:49:41;98472.53;;;5.47;75.83
85895;BME280;76441;49.954;8.842;2024-02-26T03:52:06;98472.00;;;5.45;76.61
85895;BME280;76441;49.954;8.842;2024-02-26T03:54:32;98477.34;;;5.42;76.50
85895;BME280;76441;49.954;8.842;2024-02-26T03:56:57;98470.94;;;5.41;76.61
85895;BME280;76441;49.954;8.842;2024-02-26T03:59:22;98468.22;;;5.36;78.16
85895;BME280;76441;49.954;8.842;2024-02-26T04:01:50;98477.69;;;5.35;76.74
85895;BME280;76441;49.954;8.842;2024-02-26T04:04:15;98484.09;;;5.36;76.54
85895;BME280;76441;49.954;8.842;2024-02-26T04:06:44;98479.19;;;5.27;78.90
85895;BME280;76441;49.954;8.842;2024-02-26T04:09:10;98482.19;;;5.31;77.60
85895;BME280;76441;49.954;8.842;2024-02-26T04:11:36;98473.91;;;5.26;78.68
85895;BME280;76441;49.954;8.842;2024-02-26T04:14:02;98482.03;;;5.22;78.73
85895;BME280;76441;49.954;8.842;2024-02-26T04:16:28;98484.50;;;5.24;78.73
85895;BME280;76441;49.954;8.842;2024-02-26T04:18:53;98482.84;;;5.23;78.36
85895;BME280;76441;49.954;8.842;2024-02-26T04:21:19;98478.94;;;5.24;78.92
85895;BME280;76441;49.954;8.842;2024-02-26T04:23:45;98485.03;;;5.26;78.52
85895;BME280;76441;49.954;8.842;2024-02-26T04:26:10;98481.38;;;5.30;78.06
85895;BME280;76441;49.954;8.842;2024-02-26T04:28:36;98483.84;;;5.32;78.02
85895;BME280;76441;49.954;8.842;2024-02-26T04:31:01;98478.28;;;5.32;78.18
85895;BME280;76441;49.954;8.842;2024-02-26T04:33:27;98484.97;;;5.31;78.50
85895;BME280;76441;49.954;8.842;2024-02-26T04:35:52;98478.06;;;5.28;79.01
85895;BME280;76441;49.954;8.842;2024-02-26T04:38:18;98483.09;;;5.26;79.33
85895;BME280;76441;49.954;8.842;2024-02-26T04:40:44;98483.97;;;5.22;80.46
85895;BME280;76441;49.954;8.842;2024-02-26T04:43:09;98497.31;;;5.20;80.86
85895;BME280;76441;49.954;8.842;2024-02-26T04:45:34;98492.94;;;5.14;82.28
85895;BME280;76441;49.954;8.842;2024-02-26T04:48:00;98498.25;;;5.10;84.75
85895;BME280;76441;49.954;8.842;2024-02-26T04:50:25;98487.13;;;5.10;83.55
85895;BME280;76441;49.954;8.842;2024-02-26T04:52:50;98491.31;;;5.08;83.87
85895;BME280;76441;49.954;8.842;2024-02-26T04:55:16;98491.28;;;5.13;82.75
85895;BME280;76441;49.954;8.842;2024-02-26T04:57:41;98508.19;;;5.16;82.33
85895;BME280;76441;49.954;8.842;2024-02-26T05:00:07;98500.16;;;5.15;82.67
85895;BME280;76441;49.954;8.842;2024-02-26T05:02:33;98499.31;;;5.14;82.86
85895;BME280;76441;49.954;8.842;2024-02-26T05:05:04;98499.09;;;5.11;82.27
85895;BME280;76441;49.954;8.842;2024-02-26T05:07:29;98486.84;;;5.12;82.99
85895;BME280;76441;49.954;8.842;2024-02-26T05:09:54;98494.63;;;5.10;82.66
85895;BME280;76441;49.954;8.842;2024-02-26T05:12:21;98477.38;;;5.13;82.01
85895;BME280;76441;49.954;8.842;2024-02-26T05:14:46;98474.59;;;5.13;82.86
85895;BME280;76441;49.954;8.842;2024-02-26T05:17:11;98492.97;;;5.09;83.48
85895;BME280;76441;49.954;8.842;2024-02-26T05:19:37;98486.34;;;5.05;84.81
85895;BME280;76441;49.954;8.842;2024-02-26T05:22:02;98491.91;;;5.05;83.22
85895;BME280;76441;49.954;8.842;2024-02-26T05:24:27;98486.34;;;5.05;82.82
85895;BME280;76441;49.954;8.842;2024-02-26T05:26:53;98496.34;;;5.06;82.99
85895;BME280;76441;49.954;8.842;2024-02-26T05:29:19;98489.97;;;5.05;83.45
85895;BME280;76441;49.954;8.842;2024-02-26T05:31:45;98494.16;;;5.03;82.76
85895;BME280;76441;49.954;8.842;2024-02-26T05:34:10;98489.97;;;5.05;82.83
85895;BME280;76441;49.954;8.842;2024-02-26T05:36:35;98491.91;;;5.05;83.70
85895;BME280;76441;49.954;8.842;2024-02-26T05:39:01;98494.69;;;5.05;83.32
85895;BME280;76441;49.954;8.842;2024-02-26T05:41:26;98500.25;;;5.05;83.45
85895;BME280;76441;49.954;8.842;2024-02-26T05:43:55;98488.31;;;5.04;82.24
85895;BME280;76441;49.954;8.842;2024-02-26T05:46:21;98500.78;;;5.07;82.59
85895;BME280;76441;49.954;8.842;2024-02-26T05:48:49;98497.78;;;5.03;82.73
85895;BME280;76441;49.954;8.842;2024-02-26T05:51:14;98501.66;;;5.02;82.90
85895;BME280;76441;49.954;8.842;2024-02-26T05:53:40;98503.91;;;5.00;83.25
85895;BME280;76441;49.954;8.842;2024-02-26T05:56:06;98500.34;;;4.94;83.47
85895;BME280;76441;49.954;8.842;2024-02-26T05:58:32;98497.28;;;4.96;83.86
85895;BME280;76441;49.954;8.842;2024-02-26T06:00:57;98502.03;;;4.95;83.32
85895;BME280;76441;49.954;8.842;2024-02-26T06:03:22;98509.28;;;4.91;84.00
85895;BME280;76441;49.954;8.842;2024-02-26T06:05:48;98511.53;;;4.84;85.10
85895;BME280;76441;49.954;8.842;2024-02-26T06:08:13;98503.50;;;4.83;84.79
85895;BME280;76441;49.954;8.842;2024-02-26T06:10:39;98519.09;;;4.79;85.47
85895;BME280;76441;49.954;8.842;2024-02-26T06:13:07;98518.81;;;4.80;85.44
85895;BME280;76441;49.954;8.842;2024-02-26T06:15:32;98521.59;;;4.80;85.32
85895;BME280;76441;49.954;8.842;2024-02-26T06:17:58;98532.97;;;4.84;85.16
85895;BME280;76441;49.954;8.842;2024-02-26T06:20:23;98535.50;;;4.80;85.42
85895;BME280;76441;49.954;8.842;2024-02-26T06:22:48;98539.09;;;4.86;84.27
85895;BME280;76441;49.954;8.842;2024-02-26T06:25:14;98548.56;;;4.80;85.15
85895;BME280;76441;49.954;8.842;2024-02-26T06:27:39;98558.81;;;4.84;84.74
85895;BME280;76441;49.954;8.842;2024-02-26T06:30:05;98551.28;;;4.85;85.35
85895;BME280;76441;49.954;8.842;2024-02-26T06:32:30;98559.44;;;4.76;86.07
85895;BME280;76441;49.954;8.842;2024-02-26T06:34:56;98565.31;;;4.69;87.41
85895;BME280;76441;49.954;8.842;2024-02-26T06:37:21;98557.28;;;4.68;85.86
85895;BME280;76441;49.954;8.842;2024-02-26T06:39:47;98566.16;;;4.70;86.68
85895;BME280;76441;49.954;8.842;2024-02-26T06:42:16;98573.69;;;4.64;87.25
85895;BME280;76441;49.954;8.842;2024-02-26T06:44:41;98571.19;;;4.63;86.62
85895;BME280;76441;49.954;8.842;2024-02-26T06:47:06;98574.56;;;4.60;88.09
85895;BME280;76441;49.954;8.842;2024-02-26T06:49:32;98574.84;;;4.58;87.79
85895;BME280;76441;49.954;8.842;2024-02-26T06:51:57;98575.44;;;4.55;88.10
85895;BME280;76441;49.954;8.842;2024-02-26T06:54:22;98581.56;;;4.52;89.73
85895;BME280;76441;49.954;8.842;2024-02-26T06:56:48;98585.16;;;4.53;89.43
85895;BME280;76441;49.954;8.842;2024-02-26T06:59:13;98585.16;;;4.53;89.00
85895;BME280;76441;49.954;8.842;2024-02-26T07:01:42;98589.31;;;4.50;89.13
85895;BME280;76441;49.954;8.842;2024-02-26T07:04:07;98591.84;;;4.52;89.49
85895;BME280;76441;49.954;8.842;2024-02-26T07:06:32;98594.34;;;4.53;90.09
85895;BME280;76441;49.954;8.842;2024-02-26T07:08:58;98598.50;;;4.51;89.30
85895;BME280;76441;49.954;8.842;2024-02-26T07:11:23;98607.94;;;4.50;90.00
85895;BME280;76441;49.954;8.842;2024-02-26T07:13:48;98604.03;;;4.51;89.92
85895;BME280;76441;49.954;8.842;2024-02-26T07:16:14;98609.88;;;4.49;89.08
85895;BME280;76441;49.954;8.842;2024-02-26T07:18:40;98607.41;;;4.48;91.38
85895;BME280;76441;49.954;8.842;2024-02-26T07:21:05;98619.06;;;4.50;90.41
85895;BME280;76441;49.954;8.842;2024-02-26T07:23:31;98621.00;;;4.49;91.07
85895;BME280;76441;49.954;8.842;2024-02-26T07:25:56;98619.34;;;4.48;90.75
85895;BME280;76441;49.954;8.842;2024-02-26T07:28:21;98627.13;;;4.51;89.85
85895;BME280;76441;49.954;8.842;2024-02-26T07:30:47;98621.28;;;4.53;91.18
85895;BME280;76441;49.954;8.842;2024-02-26T07:33:12;98621.84;;;4.55;91.54
85895;BME280;76441;49.954;8.842;2024-02-26T07:35:37;98626.03;;;4.52;90.85
85895;BME280;76441;49.954;8.842;2024-02-26T07:38:04;98623.78;;;4.49;90.52
85895;BME280;76441;49.954;8.842;2024-02-26T07:40:29;98620.19;;;4.54;91.63
85895;BME280;76441;49.954;8.842;2024-02-26T07:42:55;98627.41;;;4.50;92.27
85895;BME280;76441;49.954;8.842;2024-02-26T07:45:20;98616.84;;;4.52;91.96
85895;BME280;76441;49.954;8.842;2024-02-26T07:47:47;98619.88;;;4.55;90.88
85895;BME280;76441;49.954;8.842;2024-02-26T07:50:12;98625.19;;;4.52;91.36
85895;BME280;76441;49.954;8.842;2024-02-26T07:52:38;98624.91;;;4.53;92.63
85895;BME280;76441;49.954;8.842;2024-02-26T07:55:03;98623.22;;;4.57;91.12
85895;BME280;76441;49.954;8.842;2024-02-26T07:57:29;98630.44;;;4.58;91.60
85895;BME280;76441;49.954;8.842;2024-02-26T07:59:54;98637.09;;;4.57;91.12
85895;BME280;76441;49.954;8.842;2024-02-26T08:02:20;98637.94;;;4.58;91.36
85895;BME280;76441;49.954;8.842;2024-02-26T08:04:47;98629.03;;;4.61;91.02
85895;BME280;76441;49.954;8.842;2024-02-26T08:07:12;98618.44;;;4.63;90.47
85895;BME280;76441;49.954;8.842;2024-02-26T08:09:37;98626.50;;;4.64;91.67
85895;BME280;76441;49.954;8.842;2024-02-26T08:12:03;98635.13;;;4.63;91.51
85895;BME280;76441;49.954;8.842;2024-02-26T08:14:28;98629.53;;;4.68;91.98
85895;BME280;76441;49.954;8.842;2024-02-26T08:16:53;98633.09;;;4.74;92.02
85895;BME280;76441;49.954;8.842;2024-02-26T08:19:19;98639.50;;;4.74;90.79
85895;BME280;76441;49.954;8.842;2024-02-26T08:21:44;98640.06;;;4.71;90.64
85895;BME280;76441;49.954;8.842;2024-02-26T08:24:09;98640.63;;;4.73;91.59
85895;BME280;76441;49.954;8.842;2024-02-26T08:26:35;98637.31;;;4.71;92.04
85895;BME280;76441;49.954;8.842;2024-02-26T08:29:00;98642.25;;;4.79;91.52
85895;BME280;76441;49.954;8.842;2024-02-26T08:31:25;98647.78;;;4.84;90.36
85895;BME280;76441;49.954;8.842;2024-02-26T08:33:52;98647.78;;;4.84;92.41
85895;BME280;76441;49.954;8.842;2024-02-26T08:36:17;98654.75;;;4.82;91.58
85895;BME280;76441;49.954;8.842;2024-02-26T08:38:42;98652.25;;;4.80;91.47
85895;BME280;76441;49.954;8.842;2024-02-26T08:41:08;98654.44;;;4.83;91.24
85895;BME280;76441;49.954;8.842;2024-02-26T08:43:33;98660.00;;;4.88;92.36
85895;BME280;76441;49.954;8.842;2024-02-26T08:45:58;98657.78;;;4.90;92.03
85895;BME280;76441;49.954;8.842;2024-02-26T08:48:24;98665.81;;;4.92;91.66
85895;BME280;76441;49.954;8.842;2024-02-26T08:50:49;98655.81;;;4.91;91.34
85895;BME280;76441;49.954;8.842;2024-02-26T08:53:14;98650.50;;;4.94;91.68
85895;BME280;76441;49.954;8.842;2024-02-26T08:55:40;98659.94;;;4.98;92.53
85895;BME280;76441;49.954;8.842;2024-02-26T08:58:05;98660.50;;;4.95;91.86
85895;BME280;76441;49.954;8.842;2024-02-26T09:00:30;98666.94;;;4.91;91.94
85895;BME280;76441;49.954;8.842;2024-02-26T09:02:56;98666.66;;;4.92;92.27
85895;BME280;76441;49.954;8.842;2024-02-26T09:05:21;98659.09;;;4.98;92.31
85895;BME280;76441;49.954;8.842;2024-02-26T09:07:47;98661.00;;;5.03;92.23
85895;BME280;76441;49.954;8.842;2024-02-26T09:10:12;98668.50;;;5.07;92.95
85895;BME280;76441;49.954;8.842;2024-02-26T09:12:38;98664.25;;;5.15;92.83
85895;BME280;76441;49.954;8.842;2024-02-26T09:15:06;98672.50;;;5.30;91.99
85895;BME280;76441;49.954;8.842;2024-02-26T09:17:31;98675.63;;;5.23;90.76
85895;BME280;76441;49.954;8.842;2024-02-26T09:19:57;98677.34;;;5.14;92.80
85895;BME280;76441;49.954;8.842;2024-02-26T09:22:22;98680.38;;;5.18;91.53
85895;BME280;76441;49.954;8.842;2024-02-26T09:24:48;98683.16;;;5.23;90.60
85895;BME280;76441;49.954;8.842;2024-02-26T09:27:14;98677.06;;;5.16;91.69
85895;BME280;76441;49.954;8.842;2024-02-26T09:29:40;98686.47;;;5.20;92.28
85895;BME280;76441;49.954;8.842;2024-02-26T09:32:05;98681.19;;;5.23;92.01
85895;BME280;76441;49.954;8.842;2024-02-26T09:34:30;98679.81;;;5.21;91.55
85895;BME280;76441;49.954;8.842;2024-02-26T09:36:56;98680.31;;;5.28;92.32
85895;BME280;76441;49.954;8.842;2024-02-26T09:39:21;98679.44;;;5.32;91.50
85895;BME280;76441;49.954;8.842;2024-02-26T09:41:47;98679.69;;;5.36;92.78
85895;BME280;76441;49.954;8.842;2024-02-26T09:44:19;98679.59;;;5.46;92.91
85895;BME280;76441;49.954;8.842;2024-02-26T09:46:51;98674.63;;;5.43;91.48
85895;BME280;76441;49.954;8.842;2024-02-26T09:49:18;98681.81;;;5.49;93.40
85895;BME280;76441;49.954;8.842;2024-02-26T09:51:45;98675.88;;;5.61;93.38
85895;BME280;76441;49.954;8.842;2024-02-26T09:54:11;98688.28;;;5.74;93.16
85895;BME280;76441;49.954;8.842;2024-02-26T09:56:39;98696.66;;;5.74;92.28
85895;BME280;76441;49.954;8.842;2024-02-26T09:59:06;98697.13;;;5.81;93.17
85895;BME280;76441;49.954;8.842;2024-02-26T10:01:36;98703.50;;;5.91;92.50
85895;BME280;76441;49.954;8.842;2024-02-26T10:04:04;98708.72;;;5.98;90.65
85895;BME280;76441;49.954;8.842;2024-02-26T10:06:29;98715.13;;;5.99;90.45
85895;BME280;76441;49.954;8.842;2024-02-26T10:08:56;98717.59;;;6.00;90.58
85895;BME280;76441;49.954;8.842;2024-02-26T10:11:24;98712.13;;;5.90;91.45
85895;BME280;76441;49.954;8.842;2024-02-26T10:13:49;98703.44;;;6.25;90.28
85895;BME280;76441;49.954;8.842;2024-02-26T10:16:16;98703.66;;;6.29;90.15
85895;BME280;76441;49.954;8.842;2024-02-26T10:18:45;98700.78;;;6.58;90.01
85895;BME280;76441;49.954;8.842;2024-02-26T10:21:11;98698.91;;;6.77;91.10
85895;BME280;76441;49.954;8.842;2024-02-26T10:23:36;98698.00;;;6.82;89.17
85895;BME280;76441;49.954;8.842;2024-02-26T10:26:02;98699.66;;;6.83;88.88
85895;BME280;76441;49.954;8.842;2024-02-26T10:28:29;98710.44;;;6.89;88.64
85895;BME280;76441;49.954;8.842;2024-02-26T10:30:55;98707.16;;;6.64;88.84
85895;BME280;76441;49.954;8.842;2024-02-26T10:33:20;98710.59;;;6.79;89.09
85895;BME280;76441;49.954;8.842;2024-02-26T10:35:46;98714.09;;;6.66;88.00
85895;BME280;76441;49.954;8.842;2024-02-26T10:38:12;98710.44;;;6.71;89.26
85895;BME280;76441;49.954;8.842;2024-02-26T10:40:37;98707.94;;;6.88;88.48
85895;BME280;76441;49.954;8.842;2024-02-26T10:43:02;98712.81;;;7.01;88.94
85895;BME280;76441;49.954;8.842;2024-02-26T10:45:28;98700.41;;;7.31;87.85
85895;BME280;76441;49.954;8.842;2024-02-26T10:47:53;98706.84;;;7.27;87.76
85895;BME280;76441;49.954;8.842;2024-02-26T10:50:19;98712.28;;;7.56;86.40
85895;BME280;76441;49.954;8.842;2024-02-26T10:52:44;98719.31;;;7.53;85.04
85895;BME280;76441;49.954;8.842;2024-02-26T10:55:16;98721.25;;;7.71;85.48
85895;BME280;76441;49.954;8.842;2024-02-26T10:57:45;98724.38;;;8.02;83.27
85895;BME280;76441;49.954;8.842;2024-02-26T11:00:15;98721.94;;;8.74;85.34
85895;BME280;76441;49.954;8.842;2024-02-26T11:02:41;98733.59;;;8.63;82.51
85895;BME280;76441;49.954;8.842;2024-02-26T11:05:07;98739.53;;;8.29;82.73
85895;BME280;76441;49.954;8.842;2024-02-26T11:07:34;98734.97;;;8.19;84.43
85895;BME280;76441;49.954;8.842;2024-02-26T11:10:03;98743.56;;;7.90;83.37
85895;BME280;76441;49.954;8.842;2024-02-26T11:12:30;98738.38;;;7.83;84.38
85895;BME280;76441;49.954;8.842;2024-02-26T11:14:56;98739.41;;;7.88;84.15
85895;BME280;76441;49.954;8.842;2024-02-26T11:17:26;98737.22;;;8.03;85.06
85895;BME280;76441;49.954;8.842;2024-02-26T11:19:53;98734.53;;;8.12;82.80
85895;BME280;76441;49.954;8.842;2024-02-26T11:22:20;98720.06;;;8.70;82.34
85895;BME280;76441;49.954;8.842;2024-02-26T11:24:47;98727.22;;;8.76;81.94
85895;BME280;76441;49.954;8.842;2024-02-26T11:27:13;98728.00;;;8.49;81.21
85895;BME280;76441;49.954;8.842;2024-02-26T11:29:48;98734.44;;;8.36;82.29
85895;BME280;76441;49.954;8.842;2024-02-26T11:32:14;98727.09;;;8.54;81.29
85895;BME280;76441;49.954;8.842;2024-02-26T11:34:40;98740.44;;;8.43;81.38
85895;BME280;76441;49.954;8.842;2024-02-26T11:37:13;98743.75;;;8.45;81.29
85895;BME280;76441;49.954;8.842;2024-02-26T11:39:40;98742.03;;;8.30;80.28
85895;BME280;76441;49.954;8.842;2024-02-26T11:42:07;98742.19;;;8.39;81.99
85895;BME280;76441;49.954;8.842;2024-02-26T11:44:34;98741.38;;;8.20;80.62
85895;BME280;76441;49.954;8.842;2024-02-26T11:47:09;98741.06;;;8.40;81.59
85895;BME280;76441;49.954;8.842;2024-02-26T11:49:35;98731.97;;;8.75;82.59
85895;BME280;76441;49.954;8.842;2024-02-26T11:52:05;98733.41;;;8.87;81.88
85895;BME280;76441;49.954;8.842;2024-02-26T11:57:03;98740.38;;;9.03;81.59
85895;BME280;76441;49.954;8.842;2024-02-26T11:59:38;98737.34;;;8.99;79.52
85895;BME280;76441;49.954;8.842;2024-02-26T12:02:04;98736.59;;;9.21;81.18
85895;BME280;76441;49.954;8.842;2024-02-26T12:04:30;98741.63;;;9.47;80.13
85895;BME280;76441;49.954;8.842;2024-02-26T12:07:01;98735.16;;;9.60;79.21
85895;BME280;76441;49.954;8.842;2024-02-26T12:09:40;98735.28;;;9.05;78.96
85895;BME280;76441;49.954;8.842;2024-02-26T12:12:07;98721.09;;;8.88;80.79
85895;BME280;76441;49.954;8.842;2024-02-26T12:14:37;98717.34;;;8.92;80.05
85895;BME280;76441;49.954;8.842;2024-02-26T12:17:04;98732.16;;;9.20;81.18
85895;BME280;76441;49.954;8.842;2024-02-26T12:19:32;98728.94;;;9.13;78.82
85895;BME280;76441;49.954;8.842;2024-02-26T12:21:58;98729.06;;;9.08;79.04
85895;BME280;76441;49.954;8.842;2024-02-26T12:24:24;98732.38;;;9.10;79.74
85895;BME280;76441;49.954;8.842;2024-02-26T12:26:49;98737.56;;;9.03;80.16
85895;BME280;76441;49.954;8.842;2024-02-26T12:29:14;98740.88;;;9.05;80.29
85895;BME280;76441;49.954;8.842;2024-02-26T12:31:40;98743.56;;;8.96;79.52
85895;BME280;76441;49.954;8.842;2024-02-26T12:34:07;98749.81;;;9.07;79.70
85895;BME280;76441;49.954;8.842;2024-02-26T12:36:33;98750.94;;;8.92;79.45
85895;BME280;76441;49.954;8.842;2024-02-26T12:39:00;98754.97;;;9.00;79.44
85895;BME280;76441;49.954;8.842;2024-02-26T12:41:27;98759.41;;;9.01;79.37
85895;BME280;76441;49.954;8.842;2024-02-26T12:43:53;98759.09;;;9.30;80.16
85895;BME280;76441;49.954;8.842;2024-02-26T12:46:18;98758.25;;;9.29;79.99
85895;BME280;76441;49.954;8.842;2024-02-26T12:48:44;98755.47;;;9.29;78.76
85895;BME280;76441;49.954;8.842;2024-02-26T12:51:11;98761.81;;;9.21;79.21
85895;BME280;76441;49.954;8.842;2024-02-26T12:53:38;98757.84;;;9.22;79.01
85895;BME280;76441;49.954;8.842;2024-02-26T12:56:05;98762.50;;;9.27;78.97
85895;BME280;76441;49.954;8.842;2024-02-26T12:58:31;98777.59;;;9.03;79.15
85895;BME280;76441;49.954;8.842;2024-02-26T13:00:57;98771.78;;;9.14;79.58
85895;BME280;76441;49.954;8.842;2024-02-26T13:03:23;98779.94;;;9.24;79.18
85895;BME280;76441;49.954;8.842;2024-02-26T13:05:49;98778.81;;;9.25;78.34